createdAt,value
2017-11-28T00:01:37.082Z,99534
2017-11-28T00:04:06.346Z,99530
2017-11-28T00:06:36.448Z,99527
2017-11-28T00:09:05.567Z,99523
2017-11-28T00:11:34.879Z,99507
2017-11-28T00:14:04.039Z,99522
2017-11-28T00:16:33.240Z,99515
2017-11-28T00:19:03.150Z,99514
2017-11-28T00:21:32.707Z,99508
2017-11-28T00:24:02.060Z,99520
2017-11-28T00:26:31.208Z,99522
2017-11-28T00:29:01.943Z,99512
2017-11-28T00:31:31.152Z,99507
2017-11-28T00:34:00.540Z,99510
2017-11-28T00:36:30.573Z,99522
2017-11-28T00:38:59.877Z,99520
2017-11-28T00:41:29.091Z,99512
2017-11-28T00:43:58.587Z,99512
2017-11-28T00:46:28.579Z,99509
2017-11-28T00:48:58.501Z,99505
2017-11-28T00:51:28.764Z,99502
2017-11-28T00:53:57.951Z,99505
2017-11-28T00:56:27.986Z,99503
2017-11-28T00:58:58.108Z,99499
2017-11-28T01:01:28.273Z,99504
2017-11-28T01:03:57.449Z,99504
2017-11-28T01:06:27.520Z,99506
2017-11-28T01:08:56.642Z,99511
2017-11-28T01:11:25.814Z,99512
2017-11-28T01:13:55.183Z,99510
2017-11-28T01:16:24.306Z,99507
2017-11-28T01:18:53.522Z,99506
2017-11-28T01:21:22.924Z,99497
2017-11-28T01:23:55.012Z,99495
2017-11-28T01:26:24.946Z,99493
2017-11-28T01:28:54.192Z,99481
2017-11-28T01:31:23.329Z,99489
2017-11-28T01:33:54.260Z,99487
2017-11-28T01:36:23.438Z,99485
2017-11-28T01:38:52.553Z,99493
2017-11-28T01:41:23.498Z,99494
2017-11-28T01:43:52.683Z,99490
2017-11-28T01:46:21.860Z,99486
2017-11-28T01:48:51.319Z,99481
2017-11-28T01:51:21.248Z,99470
2017-11-28T01:53:50.415Z,99465
2017-11-28T01:56:19.640Z,99468
2017-11-28T01:58:48.830Z,99460
2017-11-28T02:01:18.126Z,99458
2017-11-28T02:03:47.300Z,99452
2017-11-28T02:06:16.443Z,99449
2017-11-28T02:08:45.574Z,99445
2017-11-28T02:11:14.743Z,99442
2017-11-28T02:13:43.936Z,99437
2017-11-28T02:16:13.220Z,99443
2017-11-28T02:18:42.764Z,99429
2017-11-28T02:21:11.970Z,99431
2017-11-28T02:23:41.367Z,99433
2017-11-28T02:26:10.903Z,99431
2017-11-28T02:28:40.313Z,99425
2017-11-28T02:31:09.565Z,99426
2017-11-28T02:33:39.669Z,99424
2017-11-28T02:36:08.835Z,99428
2017-11-28T02:38:37.954Z,99430
2017-11-28T02:41:23.601Z,99433
2017-11-28T02:44:02.311Z,99419
2017-11-28T02:46:33.262Z,99422
2017-11-28T02:52:17.685Z,99414
2017-11-28T02:55:12.243Z,99417
2017-11-28T02:57:41.461Z,99418
2017-11-28T03:00:10.660Z,99412
2017-11-28T03:02:39.856Z,99410
2017-11-28T03:05:09.095Z,99406
2017-11-28T03:07:39.068Z,99406
2017-11-28T03:10:13.575Z,99405
2017-11-28T03:12:55.953Z,99396
2017-11-28T03:15:29.098Z,99390
2017-11-28T03:18:10.040Z,99376
2017-11-28T03:27:00.178Z,99371
2017-11-28T03:29:37.738Z,99362
2017-11-28T03:32:07.589Z,99358
2017-11-28T03:34:36.758Z,99351
2017-11-28T03:37:06.717Z,99357
2017-11-28T03:39:35.976Z,99353
2017-11-28T03:42:05.103Z,99336
2017-11-28T03:47:53.489Z,99337
2017-11-28T03:50:24.326Z,99341
2017-11-28T03:52:53.620Z,99332
2017-11-28T03:55:22.871Z,99314
2017-11-28T03:57:54.738Z,99315
2017-11-28T04:00:35.629Z,99316
2017-11-28T04:03:05.756Z,99322
2017-11-28T04:05:35.086Z,99319
2017-11-28T04:08:04.296Z,99317
2017-11-28T04:10:33.487Z,99323
2017-11-28T04:13:03.443Z,99306
2017-11-28T04:15:33.349Z,99304
2017-11-28T04:18:03.296Z,99301
2017-11-28T04:20:32.467Z,99303
2017-11-28T04:23:01.829Z,99295
2017-11-28T04:25:31.333Z,99285
2017-11-28T04:28:00.500Z,99282
2017-11-28T04:30:29.951Z,99275
2017-11-28T04:32:59.417Z,99267
2017-11-28T04:35:28.578Z,99262
2017-11-28T04:37:58.519Z,99268
2017-11-28T04:40:28.123Z,99265
2017-11-28T04:42:58.087Z,99264
2017-11-28T04:45:27.298Z,99268
2017-11-28T04:47:56.742Z,99255
2017-11-28T04:50:26.015Z,99247
2017-11-28T04:52:56.048Z,99248
2017-11-28T04:55:26.066Z,99243
2017-11-28T04:57:56.435Z,99247
2017-11-28T05:00:26.451Z,99258
2017-11-28T05:02:55.647Z,99253
2017-11-28T05:05:25.413Z,99245
2017-11-28T05:07:54.660Z,99240
2017-11-28T05:10:24.633Z,99247
2017-11-28T05:12:54.612Z,99250
2017-11-28T05:15:24.050Z,99247
2017-11-28T05:17:53.602Z,99241
2017-11-28T05:20:22.783Z,99235
2017-11-28T05:22:52.001Z,99238
2017-11-28T05:25:27.091Z,99243
2017-11-28T05:27:57.030Z,99243
2017-11-28T05:30:26.508Z,99234
2017-11-28T05:32:55.695Z,99217
2017-11-28T05:35:25.728Z,99242
2017-11-28T05:37:54.980Z,99227
2017-11-28T05:40:24.839Z,99229
2017-11-28T05:42:55.361Z,99238
2017-11-28T05:45:24.634Z,99239
2017-11-28T05:47:53.940Z,99244
2017-11-28T05:50:24.446Z,99245
2017-11-28T05:52:53.702Z,99245
2017-11-28T05:55:22.877Z,99237
2017-11-28T05:57:52.255Z,99228
2017-11-28T06:00:21.522Z,99231
2017-11-28T06:02:50.721Z,99232
2017-11-28T06:05:20.092Z,99229
2017-11-28T06:07:49.321Z,99233
2017-11-28T06:10:18.489Z,99234
2017-11-28T06:12:47.676Z,99240
2017-11-28T06:15:16.878Z,99233
2017-11-28T06:17:46.837Z,99228
2017-11-28T06:20:16.614Z,99235
2017-11-28T06:22:45.768Z,99239
2017-11-28T06:25:14.910Z,99239
2017-11-28T06:27:45.372Z,99242
2017-11-28T06:30:14.506Z,99245
2017-11-28T06:32:44.506Z,99236
2017-11-28T06:35:13.809Z,99220
2017-11-28T06:37:43.000Z,99244
2017-11-28T06:40:12.607Z,99241
2017-11-28T06:42:42.588Z,99238
2017-11-28T06:45:11.732Z,99244
2017-11-28T06:47:41.828Z,99253
2017-11-28T06:50:12.043Z,99258
2017-11-28T06:52:41.981Z,99255
2017-11-28T06:55:11.220Z,99239
2017-11-28T06:57:40.562Z,99233
2017-11-28T07:00:09.753Z,99233
2017-11-28T07:02:42.891Z,99226
2017-11-28T07:05:12.072Z,99232
2017-11-28T07:07:41.216Z,99236
2017-11-28T07:10:11.000Z,99240
2017-11-28T07:12:41.301Z,99240
2017-11-28T07:15:10.515Z,99238
2017-11-28T07:17:40.266Z,99248
2017-11-28T07:20:09.387Z,99245
2017-11-28T07:22:38.510Z,99242
2017-11-28T07:25:08.674Z,99237
2017-11-28T07:27:37.821Z,99241
2017-11-28T07:30:07.768Z,99237
2017-11-28T07:32:37.628Z,99229
2017-11-28T07:35:06.795Z,99234
2017-11-28T07:37:35.998Z,99232
2017-11-28T07:40:06.067Z,99228
2017-11-28T07:42:36.703Z,99238
2017-11-28T07:45:05.897Z,99241
2017-11-28T07:47:35.584Z,99244
2017-11-28T07:50:04.813Z,99241
2017-11-28T07:52:34.726Z,99257
2017-11-28T07:55:04.012Z,99259
2017-11-28T07:57:33.141Z,99247
2017-11-28T08:00:02.329Z,99255
2017-11-28T08:02:31.498Z,99259
2017-11-28T08:05:01.445Z,99245
2017-11-28T08:07:30.906Z,99250
2017-11-28T08:10:00.174Z,99237
2017-11-28T08:12:29.404Z,99247
2017-11-28T08:14:58.617Z,99251
2017-11-28T08:17:28.274Z,99241
2017-11-28T08:19:58.241Z,99264
2017-11-28T08:22:27.593Z,99256
2017-11-28T08:24:57.302Z,99257
2017-11-28T08:27:26.502Z,99265
2017-11-28T08:29:55.802Z,99254
2017-11-28T08:32:25.358Z,99262
2017-11-28T08:34:54.725Z,99270
2017-11-28T08:37:25.239Z,99261
2017-11-28T08:39:56.045Z,99263
2017-11-28T08:42:25.385Z,99246
2017-11-28T08:44:54.855Z,99259
2017-11-28T08:47:24.982Z,99267
2017-11-28T08:49:54.373Z,99272
2017-11-28T08:52:24.050Z,99274
2017-11-28T08:54:53.814Z,99266
2017-11-28T08:57:23.077Z,99266
2017-11-28T08:59:52.479Z,99274
2017-11-28T09:02:21.821Z,99272
2017-11-28T09:04:51.005Z,99265
2017-11-28T09:07:20.155Z,99269
2017-11-28T09:09:50.248Z,99264
2017-11-28T09:12:19.395Z,99270
2017-11-28T09:14:48.528Z,99269
2017-11-28T09:17:18.127Z,99268
2017-11-28T09:19:47.403Z,99270
2017-11-28T09:22:16.783Z,99277
2017-11-28T09:24:46.022Z,99283
2017-11-28T09:27:15.650Z,99283
2017-11-28T09:29:45.700Z,99285
2017-11-28T09:32:15.285Z,99274
2017-11-28T09:34:44.788Z,99278
2017-11-28T09:37:13.977Z,99268
2017-11-28T09:39:43.195Z,99274
2017-11-28T09:42:12.406Z,99284
2017-11-28T09:44:41.707Z,99282
2017-11-28T09:47:11.117Z,99279
2017-11-28T09:49:40.514Z,99287
2017-11-28T09:52:10.534Z,99279
2017-11-28T09:54:46.690Z,99280
2017-11-28T09:57:15.925Z,99293
2017-11-28T09:59:45.289Z,99285
2017-11-28T10:02:14.969Z,99282
2017-11-28T10:04:44.178Z,99287
2017-11-28T10:07:13.359Z,99288
2017-11-28T10:09:43.428Z,99275
2017-11-28T10:12:13.360Z,99281
2017-11-28T10:14:43.355Z,99286
2017-11-28T10:17:13.344Z,99284
2017-11-28T10:19:43.381Z,99297
2017-11-28T10:22:14.216Z,99297
2017-11-28T10:24:43.369Z,99307
2017-11-28T10:27:13.734Z,99294
2017-11-28T10:29:43.720Z,99305
2017-11-28T10:32:12.868Z,99293
2017-11-28T10:34:42.073Z,99300
2017-11-28T10:37:11.261Z,99295
2017-11-28T10:39:40.422Z,99296
2017-11-28T10:42:10.340Z,99297
2017-11-28T10:44:39.830Z,99306
2017-11-28T10:47:08.979Z,99314
2017-11-28T10:49:38.129Z,99313
2017-11-28T10:52:07.841Z,99316
2017-11-28T10:54:36.996Z,99331
2017-11-28T10:57:07.187Z,99329
2017-11-28T10:59:36.464Z,99335
2017-11-28T11:02:06.366Z,99320
2017-11-28T11:04:35.564Z,99323
2017-11-28T11:07:04.762Z,99326
2017-11-28T11:09:34.634Z,99331
2017-11-28T11:12:04.515Z,99331
2017-11-28T11:14:33.787Z,99330
2017-11-28T11:17:02.953Z,99333
2017-11-28T11:19:33.020Z,99340
2017-11-28T11:22:03.365Z,99339
2017-11-28T11:24:33.963Z,99338
2017-11-28T11:27:03.250Z,99343
2017-11-28T11:29:32.795Z,99344
2017-11-28T11:32:02.079Z,99347
2017-11-28T11:34:31.382Z,99359
2017-11-28T11:37:00.691Z,99352
2017-11-28T11:39:29.870Z,99366
2017-11-28T11:41:59.090Z,99361
2017-11-28T11:44:28.376Z,99364
2017-11-28T11:46:57.772Z,99374
2017-11-28T11:49:27.212Z,99371
2017-11-28T11:51:58.849Z,99366
2017-11-28T11:54:28.034Z,99366
2017-11-28T11:56:57.418Z,99372
2017-11-28T11:59:27.757Z,99367
2017-11-28T12:01:56.961Z,99370
2017-11-28T12:04:26.190Z,99375
2017-11-28T12:06:56.436Z,99375
2017-11-28T12:09:25.861Z,99371
2017-11-28T12:11:55.096Z,99377
2017-11-28T12:14:24.482Z,99384
2017-11-28T12:16:53.682Z,99376
2017-11-28T12:19:22.808Z,99383
2017-11-28T12:21:52.718Z,99381
2017-11-28T12:24:21.929Z,99381
2017-11-28T12:26:51.145Z,99386
2017-11-28T12:29:20.359Z,99388
2017-11-28T12:31:49.816Z,99388
2017-11-28T12:34:18.997Z,99390
2017-11-28T12:36:49.133Z,99399
2017-11-28T12:39:18.298Z,99399
2017-11-28T12:41:47.560Z,99398
2017-11-28T12:44:16.787Z,99394
2017-11-28T12:46:46.932Z,99404
2017-11-28T12:49:16.952Z,99407
2017-11-28T12:51:46.250Z,99409
2017-11-28T12:54:15.453Z,99413
2017-11-28T12:56:44.568Z,99416
2017-11-28T12:59:15.256Z,99417
2017-11-28T13:01:57.684Z,99419
2017-11-28T13:04:27.717Z,99420
2017-11-28T13:06:56.927Z,99420
2017-11-28T13:09:26.902Z,99433
2017-11-28T13:11:57.000Z,99431
2017-11-28T13:14:26.303Z,99432
2017-11-28T13:16:57.025Z,99430
2017-11-28T13:19:26.835Z,99437
2017-11-28T13:21:56.086Z,99438
2017-11-28T13:24:26.082Z,99444
2017-11-28T13:26:56.662Z,99451
2017-11-28T13:29:25.892Z,99448
2017-11-28T13:31:55.956Z,99454
2017-11-28T13:34:26.186Z,99460
2017-11-28T13:36:55.516Z,99467
2017-11-28T13:39:24.899Z,99467
2017-11-28T13:41:54.155Z,99454
2017-11-28T13:44:23.748Z,99470
2017-11-28T13:46:53.078Z,99471
2017-11-28T13:49:23.366Z,99472
2017-11-28T13:51:52.689Z,99475
2017-11-28T13:54:24.053Z,99479
2017-11-28T13:56:53.267Z,99468
2017-11-28T13:59:22.408Z,99489
2017-11-28T14:01:51.549Z,99496
2017-11-28T14:04:20.798Z,99506
2017-11-28T14:06:49.959Z,99515
2017-11-28T14:09:19.970Z,99511
2017-11-28T14:11:50.928Z,99510
2017-11-28T14:14:20.820Z,99508
2017-11-28T14:16:50.307Z,99506
2017-11-28T14:19:20.362Z,99512
2017-11-28T14:24:59.818Z,99520
2017-11-28T14:27:39.517Z,99519
2017-11-28T14:30:09.578Z,99523
2017-11-28T14:32:45.077Z,99531
2017-11-28T14:35:19.900Z,99531
2017-11-28T14:37:50.979Z,99532
2017-11-28T14:40:20.284Z,99532
2017-11-28T14:42:58.492Z,99537
2017-11-28T14:45:29.319Z,99545
2017-11-28T14:47:58.718Z,99537
2017-11-28T14:53:40.919Z,99541
2017-11-28T14:59:23.912Z,99547
2017-11-28T15:01:59.031Z,99552
2017-11-28T15:07:37.849Z,99554
2017-11-28T15:13:29.336Z,99559
2017-11-28T15:16:04.167Z,99562
2017-11-28T15:18:36.104Z,99566
2017-11-28T15:21:16.175Z,99559
2017-11-28T15:23:50.089Z,99558
2017-11-28T15:26:24.544Z,99559
2017-11-28T15:32:07.501Z,99558
2017-11-28T15:34:36.966Z,99555
2017-11-28T15:37:06.357Z,99554
2017-11-28T15:39:35.664Z,99559
2017-11-28T15:42:05.056Z,99563
2017-11-28T15:44:34.334Z,99555
2017-11-28T15:47:05.072Z,99555
2017-11-28T15:49:34.490Z,99559
2017-11-28T15:52:05.179Z,99563
2017-11-28T15:54:34.543Z,99560
2017-11-28T15:57:04.034Z,99560
2017-11-28T15:59:33.356Z,99569
2017-11-28T16:02:02.584Z,99567
2017-11-28T16:04:34.298Z,99566
2017-11-28T16:07:04.422Z,99563
2017-11-28T16:09:34.545Z,99564
2017-11-28T16:12:04.304Z,99563
2017-11-28T16:14:33.545Z,99560
2017-11-28T16:17:02.852Z,99557
2017-11-28T16:19:32.938Z,99554
2017-11-28T16:22:02.181Z,99555
2017-11-28T16:24:32.258Z,99554
2017-11-28T16:27:02.685Z,99553
2017-11-28T16:29:32.803Z,99553
2017-11-28T16:32:02.165Z,99555
2017-11-28T16:34:31.723Z,99556
2017-11-28T16:37:00.922Z,99556
2017-11-28T16:39:30.116Z,99562
2017-11-28T16:42:00.168Z,99564
2017-11-28T16:44:29.380Z,99561
2017-11-28T16:46:58.574Z,99568
2017-11-28T16:49:27.952Z,99568
2017-11-28T16:51:57.077Z,99570
2017-11-28T16:54:26.317Z,99568
2017-11-28T16:56:55.525Z,99566
2017-11-28T16:59:24.678Z,99570
2017-11-28T17:01:53.941Z,99568
2017-11-28T17:04:24.741Z,99565
2017-11-28T17:06:53.934Z,99575
2017-11-28T17:09:24.393Z,99571
2017-11-28T17:11:53.584Z,99575
2017-11-28T17:14:23.550Z,99568
2017-11-28T17:16:52.938Z,99571
2017-11-28T17:19:23.751Z,99573
2017-11-28T17:21:52.866Z,99568
2017-11-28T17:24:22.072Z,99567
2017-11-28T17:26:52.731Z,99566
2017-11-28T17:29:22.610Z,99567
2017-11-28T17:31:51.765Z,99568
2017-11-28T17:34:21.432Z,99564
2017-11-28T17:36:51.502Z,99569
2017-11-28T17:39:20.678Z,99575
2017-11-28T17:41:51.063Z,99575
2017-11-28T17:44:20.419Z,99574
2017-11-28T17:46:49.734Z,99569
2017-11-28T17:49:20.716Z,99578
2017-11-28T17:51:50.937Z,99580
2017-11-28T17:54:20.216Z,99577
2017-11-28T17:56:51.576Z,99580
2017-11-28T17:59:20.867Z,99579
2017-11-28T18:01:50.048Z,99581
2017-11-28T18:04:20.348Z,99585
2017-11-28T18:06:50.381Z,99587
2017-11-28T18:09:20.345Z,99582
2017-11-28T18:11:50.091Z,99583
2017-11-28T18:14:19.895Z,99580
2017-11-28T18:16:49.290Z,99586
2017-11-28T18:19:18.765Z,99587
2017-11-28T18:21:48.172Z,99591
2017-11-28T18:24:17.526Z,99595
2017-11-28T18:26:47.748Z,99597
2017-11-28T18:29:17.035Z,99592
2017-11-28T18:31:46.670Z,99589
2017-11-28T18:34:17.535Z,99604
2017-11-28T18:36:47.752Z,99604
2017-11-28T18:39:17.059Z,99601
2017-11-28T18:41:47.257Z,99606
2017-11-28T18:44:16.981Z,99601
2017-11-28T18:46:46.326Z,99604
2017-11-28T18:49:15.608Z,99603
2017-11-28T18:51:45.017Z,99600
2017-11-28T18:54:14.477Z,99603
2017-11-28T18:56:44.493Z,99599
2017-11-28T18:59:14.840Z,99599
2017-11-28T19:01:45.137Z,99600
2017-11-28T19:04:15.596Z,99608
2017-11-28T19:06:45.792Z,99609
2017-11-28T19:09:15.177Z,99609
2017-11-28T19:11:44.394Z,99604
2017-11-28T19:14:14.115Z,99612
2017-11-28T19:16:44.288Z,99617
2017-11-28T19:19:13.552Z,99616
2017-11-28T19:21:42.865Z,99617
2017-11-28T19:24:12.399Z,99620
2017-11-28T19:26:41.677Z,99621
2017-11-28T19:29:11.177Z,99628
2017-11-28T19:31:41.531Z,99630
2017-11-28T19:34:13.041Z,99631
2017-11-28T19:36:42.844Z,99628
2017-11-28T19:39:12.273Z,99637
2017-11-28T19:41:42.023Z,99638
2017-11-28T19:44:11.964Z,99636
2017-11-28T19:46:41.281Z,99637
2017-11-28T19:49:11.502Z,99646
2017-11-28T19:51:41.033Z,99647
2017-11-28T19:54:10.631Z,99649
2017-11-28T19:56:40.036Z,99647
2017-11-28T19:59:09.756Z,99650
2017-11-28T20:01:39.045Z,99652
2017-11-28T20:04:09.122Z,99652
2017-11-28T20:06:39.185Z,99651
2017-11-28T20:09:09.303Z,99652
2017-11-28T20:11:39.141Z,99650
2017-11-28T20:14:09.041Z,99655
2017-11-28T20:16:38.530Z,99658
2017-11-28T20:19:11.015Z,99656
2017-11-28T20:21:41.241Z,99669
2017-11-28T20:24:10.498Z,99668
2017-11-28T20:26:42.414Z,99673
2017-11-28T20:29:11.711Z,99675
2017-11-28T20:31:41.010Z,99670
2017-11-28T20:34:10.697Z,99672
2017-11-28T20:36:40.109Z,99671
2017-11-28T20:39:09.340Z,99672
2017-11-28T20:41:39.440Z,99672
2017-11-28T20:44:08.941Z,99674
2017-11-28T20:46:38.141Z,99673
2017-11-28T20:49:13.043Z,99676
2017-11-28T20:51:42.385Z,99676
2017-11-28T20:54:11.642Z,99674
2017-11-28T20:56:42.426Z,99676
2017-11-28T20:59:13.499Z,99677
2017-11-28T21:01:42.851Z,99679
2017-11-28T21:04:12.368Z,99678
2017-11-28T21:06:41.615Z,99684
2017-11-28T21:09:11.764Z,99683
2017-11-28T21:11:41.059Z,99682
2017-11-28T21:14:10.361Z,99685
2017-11-28T21:16:39.732Z,99687
2017-11-28T21:19:11.720Z,99687
2017-11-28T21:21:40.901Z,99692
2017-11-28T21:24:11.071Z,99694
2017-11-28T21:26:41.680Z,99692
2017-11-28T21:29:10.917Z,99692
2017-11-28T21:31:42.388Z,99695
2017-11-28T21:34:12.477Z,99695
2017-11-28T21:36:41.726Z,99693
2017-11-28T21:39:12.858Z,99695
2017-11-28T21:41:42.131Z,99694
2017-11-28T21:44:11.432Z,99701
2017-11-28T21:46:40.859Z,99703
2017-11-28T21:49:10.376Z,99707
2017-11-28T21:51:39.911Z,99708
2017-11-28T21:54:11.449Z,99707
2017-11-28T21:56:40.673Z,99711
2017-11-28T21:59:12.918Z,99715
2017-11-28T22:01:44.951Z,99717
2017-11-28T22:04:14.409Z,99718
2017-11-28T22:06:45.231Z,99715
2017-11-28T22:09:14.569Z,99717
2017-11-28T22:11:44.340Z,99718
2017-11-28T22:14:14.394Z,99731
2017-11-28T22:16:44.491Z,99728
2017-11-28T22:19:14.674Z,99731
2017-11-28T22:21:44.001Z,99738
2017-11-28T22:24:14.178Z,99738
2017-11-28T22:26:44.246Z,99741
2017-11-28T22:29:13.526Z,99746
2017-11-28T22:31:43.443Z,99748
2017-11-28T22:34:17.124Z,99743
2017-11-28T22:36:46.254Z,99744
2017-11-28T22:39:16.305Z,99741
2017-11-28T22:41:46.308Z,99740
2017-11-28T22:44:15.518Z,99738
2017-11-28T22:46:44.700Z,99738
2017-11-28T22:49:17.596Z,99743
2017-11-28T22:51:46.778Z,99744
2017-11-28T22:54:16.871Z,99746
2017-11-28T22:56:47.662Z,99744
2017-11-28T22:59:16.935Z,99746
2017-11-28T23:01:46.132Z,99746
2017-11-28T23:04:15.647Z,99745
2017-11-28T23:06:44.888Z,99748
2017-11-28T23:09:14.081Z,99751
2017-11-28T23:11:44.156Z,99750
2017-11-28T23:14:31.796Z,99753
2017-11-28T23:17:01.726Z,99754
2017-11-28T23:19:31.633Z,99754
2017-11-28T23:22:02.576Z,99753
2017-11-28T23:24:32.980Z,99751
2017-11-28T23:27:02.169Z,99752
2017-11-28T23:29:31.308Z,99755
2017-11-28T23:32:00.497Z,99759
2017-11-28T23:34:29.703Z,99757
2017-11-28T23:36:59.635Z,99754
2017-11-28T23:39:29.594Z,99748
2017-11-28T23:41:58.719Z,99754
2017-11-28T23:44:27.820Z,99758
2017-11-28T23:46:57.112Z,99760
2017-11-28T23:49:26.225Z,99766
2017-11-28T23:51:55.358Z,99766
2017-11-28T23:54:24.553Z,99765
2017-11-28T23:56:53.660Z,99769
2017-11-28T23:59:22.785Z,99775
